sensor_id;sensor_type;location;lat;lon;timestamp;P1;durP1;ratioP1;P2;durP2;ratioP2
60502;SDS011;51448;51.660;5.824;2023-03-11T00:00:44;11.68;;;3.25;;
60502;SDS011;51448;51.660;5.824;2023-03-11T00:03:14;13.07;;;2.88;;
60502;SDS011;51448;51.660;5.824;2023-03-11T00:05:44;14.40;;;3.30;;
60502;SDS011;51448;51.660;5.824;2023-03-11T00:08:15;14.32;;;3.20;;
60502;SDS011;51448;51.660;5.824;2023-03-11T00:10:46;14.02;;;3.22;;
60502;SDS011;51448;51.660;5.824;2023-03-11T00:13:19;12.85;;;3.00;;
60502;SDS011;51448;51.660;5.824;2023-03-11T00:15:48;12.45;;;3.08;;
60502;SDS011;51448;51.660;5.824;2023-03-11T00:18:23;16.35;;;3.17;;
60502;SDS011;51448;51.660;5.824;2023-03-11T00:20:53;11.20;;;2.75;;
60502;SDS011;51448;51.660;5.824;2023-03-11T00:23:23;11.57;;;3.03;;
60502;SDS011;51448;51.660;5.824;2023-03-11T00:25:53;11.02;;;2.92;;
60502;SDS011;51448;51.660;5.824;2023-03-11T00:28:21;12.27;;;3.03;;
60502;SDS011;51448;51.660;5.824;2023-03-11T00:30:52;11.38;;;2.80;;
60502;SDS011;51448;51.660;5.824;2023-03-11T00:33:19;11.68;;;2.60;;
60502;SDS011;51448;51.660;5.824;2023-03-11T00:35:48;10.15;;;2.17;;
60502;SDS011;51448;51.660;5.824;2023-03-11T00:38:16;13.98;;;2.55;;
60502;SDS011;51448;51.660;5.824;2023-03-11T00:40:45;12.00;;;2.95;;
60502;SDS011;51448;51.660;5.824;2023-03-11T00:43:15;10.00;;;2.45;;
60502;SDS011;51448;51.660;5.824;2023-03-11T00:45:43;11.40;;;2.47;;
60502;SDS011;51448;51.660;5.824;2023-03-11T00:48:11;11.35;;;2.47;;
60502;SDS011;51448;51.660;5.824;2023-03-11T00:50:41;10.18;;;2.70;;
60502;SDS011;51448;51.660;5.824;2023-03-11T00:53:09;11.90;;;2.90;;
60502;SDS011;51448;51.660;5.824;2023-03-11T00:55:37;9.98;;;2.30;;
60502;SDS011;51448;51.660;5.824;2023-03-11T00:58:09;12.57;;;2.35;;
60502;SDS011;51448;51.660;5.824;2023-03-11T01:00:45;8.80;;;2.17;;
60502;SDS011;51448;51.660;5.824;2023-03-11T01:03:13;14.10;;;2.60;;
60502;SDS011;51448;51.660;5.824;2023-03-11T01:05:40;11.90;;;2.15;;
60502;SDS011;51448;51.660;5.824;2023-03-11T01:08:08;12.95;;;2.55;;
60502;SDS011;51448;51.660;5.824;2023-03-11T01:10:37;12.55;;;2.28;;
60502;SDS011;51448;51.660;5.824;2023-03-11T01:13:04;11.48;;;2.28;;
60502;SDS011;51448;51.660;5.824;2023-03-11T01:15:34;8.75;;;2.30;;
60502;SDS011;51448;51.660;5.824;2023-03-11T01:18:03;12.20;;;3.03;;
60502;SDS011;51448;51.660;5.824;2023-03-11T01:20:33;14.43;;;2.38;;
60502;SDS011;51448;51.660;5.824;2023-03-11T01:23:04;14.32;;;2.20;;
60502;SDS011;51448;51.660;5.824;2023-03-11T01:25:34;10.90;;;2.50;;
60502;SDS011;51448;51.660;5.824;2023-03-11T01:28:02;8.25;;;2.00;;
60502;SDS011;51448;51.660;5.824;2023-03-11T01:30:30;11.85;;;2.40;;
60502;SDS011;51448;51.660;5.824;2023-03-11T01:32:58;10.55;;;1.90;;
60502;SDS011;51448;51.660;5.824;2023-03-11T01:35:27;12.40;;;2.28;;
60502;SDS011;51448;51.660;5.824;2023-03-11T01:37:57;6.97;;;1.55;;
60502;SDS011;51448;51.660;5.824;2023-03-11T01:42:59;8.38;;;1.85;;
60502;SDS011;51448;51.660;5.824;2023-03-11T01:48:21;10.40;;;2.58;;
60502;SDS011;51448;51.660;5.824;2023-03-11T01:50:48;10.95;;;2.25;;
60502;SDS011;51448;51.660;5.824;2023-03-11T01:53:19;8.93;;;1.83;;
60502;SDS011;51448;51.660;5.824;2023-03-11T01:55:49;7.13;;;1.60;;
60502;SDS011;51448;51.660;5.824;2023-03-11T01:58:20;10.23;;;1.70;;
60502;SDS011;51448;51.660;5.824;2023-03-11T02:00:56;10.98;;;2.00;;
60502;SDS011;51448;51.660;5.824;2023-03-11T02:03:35;7.38;;;1.48;;
60502;SDS011;51448;51.660;5.824;2023-03-11T02:06:08;9.63;;;1.70;;
60502;SDS011;51448;51.660;5.824;2023-03-11T02:08:41;7.13;;;1.58;;
60502;SDS011;51448;51.660;5.824;2023-03-11T02:11:14;9.25;;;1.88;;
60502;SDS011;51448;51.660;5.824;2023-03-11T02:13:51;12.40;;;1.95;;
60502;SDS011;51448;51.660;5.824;2023-03-11T02:16:25;9.38;;;2.20;;
60502;SDS011;51448;51.660;5.824;2023-03-11T02:18:53;8.63;;;1.80;;
60502;SDS011;51448;51.660;5.824;2023-03-11T02:21:26;7.53;;;1.55;;
60502;SDS011;51448;51.660;5.824;2023-03-11T02:24:10;9.57;;;1.75;;
60502;SDS011;51448;51.660;5.824;2023-03-11T02:26:55;8.73;;;1.77;;
60502;SDS011;51448;51.660;5.824;2023-03-11T02:29:24;11.88;;;2.00;;
60502;SDS011;51448;51.660;5.824;2023-03-11T02:31:58;7.82;;;1.48;;
60502;SDS011;51448;51.660;5.824;2023-03-11T02:34:32;10.05;;;2.28;;
60502;SDS011;51448;51.660;5.824;2023-03-11T02:37:07;7.70;;;1.57;;
60502;SDS011;51448;51.660;5.824;2023-03-11T02:39:46;9.82;;;1.90;;
60502;SDS011;51448;51.660;5.824;2023-03-11T02:42:18;8.30;;;1.92;;
60502;SDS011;51448;51.660;5.824;2023-03-11T02:44:55;9.75;;;2.30;;
60502;SDS011;51448;51.660;5.824;2023-03-11T02:47:31;8.82;;;1.85;;
60502;SDS011;51448;51.660;5.824;2023-03-11T02:50:02;10.43;;;1.90;;
60502;SDS011;51448;51.660;5.824;2023-03-11T02:52:32;10.13;;;2.13;;
60502;SDS011;51448;51.660;5.824;2023-03-11T02:55:02;11.68;;;2.33;;
60502;SDS011;51448;51.660;5.824;2023-03-11T02:57:30;13.40;;;2.25;;
60502;SDS011;51448;51.660;5.824;2023-03-11T02:59:58;7.25;;;1.73;;
60502;SDS011;51448;51.660;5.824;2023-03-11T03:02:28;7.18;;;1.60;;
60502;SDS011;51448;51.660;5.824;2023-03-11T03:04:55;11.45;;;2.20;;
60502;SDS011;51448;51.660;5.824;2023-03-11T03:07:23;7.55;;;1.70;;
60502;SDS011;51448;51.660;5.824;2023-03-11T03:09:51;9.57;;;2.20;;
60502;SDS011;51448;51.660;5.824;2023-03-11T03:12:19;8.57;;;1.80;;
60502;SDS011;51448;51.660;5.824;2023-03-11T03:14:47;8.90;;;1.90;;
60502;SDS011;51448;51.660;5.824;2023-03-11T03:17:16;12.70;;;2.35;;
60502;SDS011;51448;51.660;5.824;2023-03-11T03:19:46;6.88;;;1.60;;
60502;SDS011;51448;51.660;5.824;2023-03-11T03:22:14;9.15;;;1.90;;
60502;SDS011;51448;51.660;5.824;2023-03-11T03:24:43;10.98;;;2.05;;
60502;SDS011;51448;51.660;5.824;2023-03-11T03:27:11;9.48;;;1.70;;
60502;SDS011;51448;51.660;5.824;2023-03-11T03:29:39;10.90;;;2.17;;
60502;SDS011;51448;51.660;5.824;2023-03-11T03:32:07;11.13;;;1.77;;
60502;SDS011;51448;51.660;5.824;2023-03-11T03:34:35;10.25;;;2.28;;
60502;SDS011;51448;51.660;5.824;2023-03-11T03:37:02;6.85;;;2.10;;
60502;SDS011;51448;51.660;5.824;2023-03-11T03:39:31;11.27;;;2.00;;
60502;SDS011;51448;51.660;5.824;2023-03-11T03:41:59;9.93;;;2.28;;
60502;SDS011;51448;51.660;5.824;2023-03-11T03:44:30;8.15;;;1.67;;
60502;SDS011;51448;51.660;5.824;2023-03-11T03:46:58;9.63;;;2.25;;
60502;SDS011;51448;51.660;5.824;2023-03-11T03:49:26;11.00;;;2.22;;
60502;SDS011;51448;51.660;5.824;2023-03-11T03:51:55;7.72;;;1.85;;
60502;SDS011;51448;51.660;5.824;2023-03-11T03:54:29;14.05;;;2.45;;
60502;SDS011;51448;51.660;5.824;2023-03-11T03:56:58;9.57;;;1.83;;
60502;SDS011;51448;51.660;5.824;2023-03-11T03:59:30;10.73;;;2.22;;
60502;SDS011;51448;51.660;5.824;2023-03-11T04:01:59;7.88;;;1.90;;
60502;SDS011;51448;51.660;5.824;2023-03-11T04:04:29;13.40;;;2.20;;
60502;SDS011;51448;51.660;5.824;2023-03-11T04:06:58;12.43;;;2.42;;
60502;SDS011;51448;51.660;5.824;2023-03-11T04:09:25;8.75;;;2.10;;
60502;SDS011;51448;51.660;5.824;2023-03-11T04:11:54;8.25;;;1.88;;
60502;SDS011;51448;51.660;5.824;2023-03-11T04:14:22;12.20;;;2.40;;
60502;SDS011;51448;51.660;5.824;2023-03-11T04:16:54;9.15;;;2.00;;
60502;SDS011;51448;51.660;5.824;2023-03-11T04:19:22;16.02;;;2.28;;
60502;SDS011;51448;51.660;5.824;2023-03-11T04:21:50;7.60;;;2.05;;
60502;SDS011;51448;51.660;5.824;2023-03-11T04:24:20;11.00;;;2.47;;
60502;SDS011;51448;51.660;5.824;2023-03-11T04:26:48;7.93;;;1.92;;
60502;SDS011;51448;51.660;5.824;2023-03-11T04:29:17;11.35;;;2.22;;
60502;SDS011;51448;51.660;5.824;2023-03-11T04:34:16;10.38;;;2.40;;
60502;SDS011;51448;51.660;5.824;2023-03-11T04:36:44;9.93;;;2.45;;
60502;SDS011;51448;51.660;5.824;2023-03-11T04:39:14;10.05;;;2.30;;
60502;SDS011;51448;51.660;5.824;2023-03-11T04:41:43;11.45;;;2.03;;
60502;SDS011;51448;51.660;5.824;2023-03-11T04:44:15;7.15;;;1.98;;
60502;SDS011;51448;51.660;5.824;2023-03-11T04:46:44;10.48;;;2.13;;
60502;SDS011;51448;51.660;5.824;2023-03-11T04:49:11;9.60;;;2.00;;
60502;SDS011;51448;51.660;5.824;2023-03-11T04:51:40;10.57;;;2.40;;
60502;SDS011;51448;51.660;5.824;2023-03-11T04:54:09;7.55;;;2.00;;
60502;SDS011;51448;51.660;5.824;2023-03-11T04:56:37;10.27;;;2.53;;
60502;SDS011;51448;51.660;5.824;2023-03-11T04:59:06;13.88;;;2.85;;
60502;SDS011;51448;51.660;5.824;2023-03-11T05:01:36;9.82;;;2.30;;
60502;SDS011;51448;51.660;5.824;2023-03-11T05:04:06;8.32;;;1.88;;
60502;SDS011;51448;51.660;5.824;2023-03-11T05:06:35;6.93;;;1.73;;
60502;SDS011;51448;51.660;5.824;2023-03-11T05:09:04;9.23;;;2.25;;
60502;SDS011;51448;51.660;5.824;2023-03-11T05:11:35;10.75;;;1.90;;
60502;SDS011;51448;51.660;5.824;2023-03-11T05:14:03;11.82;;;2.55;;
60502;SDS011;51448;51.660;5.824;2023-03-11T05:16:31;10.48;;;2.40;;
60502;SDS011;51448;51.660;5.824;2023-03-11T05:18:59;8.73;;;2.05;;
60502;SDS011;51448;51.660;5.824;2023-03-11T05:21:26;12.27;;;2.50;;
60502;SDS011;51448;51.660;5.824;2023-03-11T05:23:54;10.27;;;2.15;;
60502;SDS011;51448;51.660;5.824;2023-03-11T05:26:22;6.15;;;1.88;;
60502;SDS011;51448;51.660;5.824;2023-03-11T05:28:50;7.90;;;2.03;;
60502;SDS011;51448;51.660;5.824;2023-03-11T05:31:17;11.80;;;2.17;;
60502;SDS011;51448;51.660;5.824;2023-03-11T05:33:45;8.90;;;2.03;;
60502;SDS011;51448;51.660;5.824;2023-03-11T05:36:13;8.95;;;1.90;;
60502;SDS011;51448;51.660;5.824;2023-03-11T05:38:43;10.27;;;2.08;;
60502;SDS011;51448;51.660;5.824;2023-03-11T05:41:13;8.55;;;1.92;;
60502;SDS011;51448;51.660;5.824;2023-03-11T05:43:42;12.88;;;2.15;;
60502;SDS011;51448;51.660;5.824;2023-03-11T05:46:10;10.02;;;2.42;;
60502;SDS011;51448;51.660;5.824;2023-03-11T05:48:38;9.20;;;2.00;;
60502;SDS011;51448;51.660;5.824;2023-03-11T05:51:10;8.82;;;2.30;;
60502;SDS011;51448;51.660;5.824;2023-03-11T05:53:44;11.38;;;2.53;;
60502;SDS011;51448;51.660;5.824;2023-03-11T05:56:20;8.75;;;2.13;;
60502;SDS011;51448;51.660;5.824;2023-03-11T05:58:50;7.97;;;2.38;;
60502;SDS011;51448;51.660;5.824;2023-03-11T06:01:18;6.70;;;1.98;;
60502;SDS011;51448;51.660;5.824;2023-03-11T06:03:47;10.45;;;2.33;;
60502;SDS011;51448;51.660;5.824;2023-03-11T06:06:15;7.18;;;2.08;;
60502;SDS011;51448;51.660;5.824;2023-03-11T06:08:44;5.90;;;1.67;;
60502;SDS011;51448;51.660;5.824;2023-03-11T06:11:17;8.98;;;1.98;;
60502;SDS011;51448;51.660;5.824;2023-03-11T06:13:47;13.95;;;2.72;;
60502;SDS011;51448;51.660;5.824;2023-03-11T06:16:14;11.57;;;2.63;;
60502;SDS011;51448;51.660;5.824;2023-03-11T06:18:42;12.98;;;2.35;;
60502;SDS011;51448;51.660;5.824;2023-03-11T06:21:12;10.73;;;2.20;;
60502;SDS011;51448;51.660;5.824;2023-03-11T06:23:46;10.80;;;2.47;;
60502;SDS011;51448;51.660;5.824;2023-03-11T06:26:16;7.65;;;2.47;;
60502;SDS011;51448;51.660;5.824;2023-03-11T06:28:48;10.38;;;2.38;;
60502;SDS011;51448;51.660;5.824;2023-03-11T06:31:24;11.45;;;2.28;;
60502;SDS011;51448;51.660;5.824;2023-03-11T06:34:00;7.32;;;2.10;;
60502;SDS011;51448;51.660;5.824;2023-03-11T06:36:27;10.25;;;2.40;;
60502;SDS011;51448;51.660;5.824;2023-03-11T06:38:55;7.97;;;1.90;;
60502;SDS011;51448;51.660;5.824;2023-03-11T06:41:24;10.88;;;2.35;;
60502;SDS011;51448;51.660;5.824;2023-03-11T06:43:53;10.75;;;2.40;;
60502;SDS011;51448;51.660;5.824;2023-03-11T06:46:21;11.75;;;2.85;;
60502;SDS011;51448;51.660;5.824;2023-03-11T06:48:53;12.32;;;2.42;;
60502;SDS011;51448;51.660;5.824;2023-03-11T06:51:24;11.95;;;3.05;;
60502;SDS011;51448;51.660;5.824;2023-03-11T06:53:52;11.07;;;2.42;;
60502;SDS011;51448;51.660;5.824;2023-03-11T06:56:21;8.10;;;2.40;;
60502;SDS011;51448;51.660;5.824;2023-03-11T06:58:55;10.80;;;2.70;;
60502;SDS011;51448;51.660;5.824;2023-03-11T07:01:27;12.93;;;2.60;;
60502;SDS011;51448;51.660;5.824;2023-03-11T07:03:56;9.80;;;3.30;;
60502;SDS011;51448;51.660;5.824;2023-03-11T07:06:25;9.63;;;2.70;;
60502;SDS011;51448;51.660;5.824;2023-03-11T07:09:03;12.88;;;3.30;;
60502;SDS011;51448;51.660;5.824;2023-03-11T07:11:33;12.10;;;3.00;;
60502;SDS011;51448;51.660;5.824;2023-03-11T07:14:10;13.63;;;3.28;;
60502;SDS011;51448;51.660;5.824;2023-03-11T07:16:42;13.65;;;2.70;;
60502;SDS011;51448;51.660;5.824;2023-03-11T07:19:20;14.77;;;3.38;;
60502;SDS011;51448;51.660;5.824;2023-03-11T07:21:53;12.35;;;3.28;;
60502;SDS011;51448;51.660;5.824;2023-03-11T07:24:22;12.27;;;3.83;;
60502;SDS011;51448;51.660;5.824;2023-03-11T07:26:49;10.00;;;2.42;;
60502;SDS011;51448;51.660;5.824;2023-03-11T07:29:17;11.18;;;2.50;;
60502;SDS011;51448;51.660;5.824;2023-03-11T07:31:46;6.97;;;2.28;;
60502;SDS011;51448;51.660;5.824;2023-03-11T07:34:13;8.98;;;2.90;;
60502;SDS011;51448;51.660;5.824;2023-03-11T07:36:41;8.32;;;2.20;;
60502;SDS011;51448;51.660;5.824;2023-03-11T07:39:11;10.02;;;2.28;;
60502;SDS011;51448;51.660;5.824;2023-03-11T07:41:44;8.75;;;2.00;;
60502;SDS011;51448;51.660;5.824;2023-03-11T07:44:12;9.35;;;1.95;;
60502;SDS011;51448;51.660;5.824;2023-03-11T07:46:42;9.15;;;1.88;;
60502;SDS011;51448;51.660;5.824;2023-03-11T07:49:10;10.30;;;1.92;;
60502;SDS011;51448;51.660;5.824;2023-03-11T07:51:38;9.15;;;2.28;;
60502;SDS011;51448;51.660;5.824;2023-03-11T07:54:10;8.32;;;2.47;;
60502;SDS011;51448;51.660;5.824;2023-03-11T07:56:39;8.85;;;2.35;;
60502;SDS011;51448;51.660;5.824;2023-03-11T07:59:06;8.80;;;2.22;;
60502;SDS011;51448;51.660;5.824;2023-03-11T08:01:34;8.63;;;2.35;;
60502;SDS011;51448;51.660;5.824;2023-03-11T08:04:03;9.85;;;2.88;;
60502;SDS011;51448;51.660;5.824;2023-03-11T08:06:34;9.07;;;2.55;;
60502;SDS011;51448;51.660;5.824;2023-03-11T08:09:04;11.15;;;3.40;;
60502;SDS011;51448;51.660;5.824;2023-03-11T08:14:03;13.73;;;5.68;;
60502;SDS011;51448;51.660;5.824;2023-03-11T08:16:31;15.75;;;4.60;;
60502;SDS011;51448;51.660;5.824;2023-03-11T08:18:59;9.40;;;3.83;;
60502;SDS011;51448;51.660;5.824;2023-03-11T08:21:28;13.23;;;3.90;;
60502;SDS011;51448;51.660;5.824;2023-03-11T08:23:59;10.02;;;3.45;;
60502;SDS011;51448;51.660;5.824;2023-03-11T08:26:29;8.98;;;3.40;;
60502;SDS011;51448;51.660;5.824;2023-03-11T08:28:58;8.60;;;3.75;;
60502;SDS011;51448;51.660;5.824;2023-03-11T08:31:28;11.35;;;4.68;;
60502;SDS011;51448;51.660;5.824;2023-03-11T08:33:59;10.60;;;4.35;;
60502;SDS011;51448;51.660;5.824;2023-03-11T08:36:30;12.07;;;4.07;;
60502;SDS011;51448;51.660;5.824;2023-03-11T08:39:01;14.07;;;4.72;;
60502;SDS011;51448;51.660;5.824;2023-03-11T08:41:29;11.68;;;3.38;;
60502;SDS011;51448;51.660;5.824;2023-03-11T08:43:56;9.13;;;2.15;;
60502;SDS011;51448;51.660;5.824;2023-03-11T08:48:58;9.18;;;1.90;;
60502;SDS011;51448;51.660;5.824;2023-03-11T08:51:28;7.30;;;2.38;;
60502;SDS011;51448;51.660;5.824;2023-03-11T08:53:58;6.75;;;2.00;;
60502;SDS011;51448;51.660;5.824;2023-03-11T08:56:27;8.00;;;2.13;;
60502;SDS011;51448;51.660;5.824;2023-03-11T08:58:55;8.43;;;2.10;;
60502;SDS011;51448;51.660;5.824;2023-03-11T09:01:23;6.55;;;1.70;;
60502;SDS011;51448;51.660;5.824;2023-03-11T09:03:51;7.82;;;1.70;;
60502;SDS011;51448;51.660;5.824;2023-03-11T09:06:19;7.55;;;1.33;;
60502;SDS011;51448;51.660;5.824;2023-03-11T09:08:48;8.55;;;1.70;;
60502;SDS011;51448;51.660;5.824;2023-03-11T09:11:16;6.97;;;1.60;;
60502;SDS011;51448;51.660;5.824;2023-03-11T09:13:45;5.38;;;1.50;;
60502;SDS011;51448;51.660;5.824;2023-03-11T09:16:13;7.30;;;1.55;;
60502;SDS011;51448;51.660;5.824;2023-03-11T09:18:45;7.32;;;1.88;;
60502;SDS011;51448;51.660;5.824;2023-03-11T09:21:12;6.28;;;1.70;;
60502;SDS011;51448;51.660;5.824;2023-03-11T09:23:41;9.90;;;2.17;;
60502;SDS011;51448;51.660;5.824;2023-03-11T09:26:11;5.53;;;1.70;;
60502;SDS011;51448;51.660;5.824;2023-03-11T09:28:39;9.07;;;1.70;;
60502;SDS011;51448;51.660;5.824;2023-03-11T09:31:08;7.47;;;1.75;;
60502;SDS011;51448;51.660;5.824;2023-03-11T09:33:39;8.07;;;1.52;;
60502;SDS011;51448;51.660;5.824;2023-03-11T09:36:15;7.80;;;1.52;;
60502;SDS011;51448;51.660;5.824;2023-03-11T09:38:47;6.57;;;1.30;;
60502;SDS011;51448;51.660;5.824;2023-03-11T09:41:28;8.25;;;1.30;;
60502;SDS011;51448;51.660;5.824;2023-03-11T09:44:27;5.47;;;1.25;;
60502;SDS011;51448;51.660;5.824;2023-03-11T09:55:56;7.03;;;1.40;;
60502;SDS011;51448;51.660;5.824;2023-03-11T09:58:43;5.25;;;0.82;;
60502;SDS011;51448;51.660;5.824;2023-03-11T10:04:19;6.18;;;0.77;;
60502;SDS011;51448;51.660;5.824;2023-03-11T10:06:56;4.63;;;0.70;;
60502;SDS011;51448;51.660;5.824;2023-03-11T10:09:32;6.10;;;0.90;;
60502;SDS011;51448;51.660;5.824;2023-03-11T10:21:00;7.07;;;1.10;;
60502;SDS011;51448;51.660;5.824;2023-03-11T10:26:27;7.13;;;0.95;;
60502;SDS011;51448;51.660;5.824;2023-03-11T10:29:12;5.88;;;0.98;;
60502;SDS011;51448;51.660;5.824;2023-03-11T10:31:53;4.93;;;0.70;;
60502;SDS011;51448;51.660;5.824;2023-03-11T10:34:55;5.60;;;0.90;;
60502;SDS011;51448;51.660;5.824;2023-03-11T10:37:39;6.38;;;0.95;;
60502;SDS011;51448;51.660;5.824;2023-03-11T10:40:25;4.53;;;0.80;;
60502;SDS011;51448;51.660;5.824;2023-03-11T10:43:02;5.30;;;0.98;;
60502;SDS011;51448;51.660;5.824;2023-03-11T10:45:39;5.60;;;0.70;;
60502;SDS011;51448;51.660;5.824;2023-03-11T10:48:12;4.97;;;0.75;;
60502;SDS011;51448;51.660;5.824;2023-03-11T10:54:00;6.10;;;0.88;;
60502;SDS011;51448;51.660;5.824;2023-03-11T10:56:35;4.13;;;0.65;;
60502;SDS011;51448;51.660;5.824;2023-03-11T10:59:25;7.30;;;0.85;;
60502;SDS011;51448;51.660;5.824;2023-03-11T11:02:32;6.07;;;0.90;;
60502;SDS011;51448;51.660;5.824;2023-03-11T11:07:44;7.40;;;1.13;;
60502;SDS011;51448;51.660;5.824;2023-03-11T11:10:23;5.93;;;0.80;;
60502;SDS011;51448;51.660;5.824;2023-03-11T11:18:25;5.00;;;0.95;;
60502;SDS011;51448;51.660;5.824;2023-03-11T11:23:40;3.03;;;0.77;;
60502;SDS011;51448;51.660;5.824;2023-03-11T11:26:20;4.70;;;0.70;;
60502;SDS011;51448;51.660;5.824;2023-03-11T11:31:38;5.93;;;0.70;;
60502;SDS011;51448;51.660;5.824;2023-03-11T11:34:28;4.27;;;0.80;;
60502;SDS011;51448;51.660;5.824;2023-03-11T11:36:59;6.47;;;1.17;;
60502;SDS011;51448;51.660;5.824;2023-03-11T11:39:32;4.95;;;0.90;;
60502;SDS011;51448;51.660;5.824;2023-03-11T11:42:18;4.50;;;0.82;;
60502;SDS011;51448;51.660;5.824;2023-03-11T11:44:47;6.78;;;1.77;;
60502;SDS011;51448;51.660;5.824;2023-03-11T11:47:32;4.55;;;0.80;;
60502;SDS011;51448;51.660;5.824;2023-03-11T11:50:03;4.88;;;0.65;;
60502;SDS011;51448;51.660;5.824;2023-03-11T11:52:48;8.73;;;1.17;;
60502;SDS011;51448;51.660;5.824;2023-03-11T11:55:25;7.00;;;0.90;;
60502;SDS011;51448;51.660;5.824;2023-03-11T11:57:56;5.68;;;0.70;;
60502;SDS011;51448;51.660;5.824;2023-03-11T12:00:27;7.55;;;1.40;;
60502;SDS011;51448;51.660;5.824;2023-03-11T12:03:20;4.28;;;0.95;;
60502;SDS011;51448;51.660;5.824;2023-03-11T12:11:43;4.13;;;0.70;;
60502;SDS011;51448;51.660;5.824;2023-03-11T12:17:00;4.43;;;0.75;;
60502;SDS011;51448;51.660;5.824;2023-03-11T12:19:40;14.20;;;1.70;;
60502;SDS011;51448;51.660;5.824;2023-03-11T12:22:37;3.80;;;0.82;;
60502;SDS011;51448;51.660;5.824;2023-03-11T12:28:52;3.78;;;0.80;;
60502;SDS011;51448;51.660;5.824;2023-03-11T12:31:35;6.45;;;1.00;;
60502;SDS011;51448;51.660;5.824;2023-03-11T12:34:08;6.05;;;1.33;;
60502;SDS011;51448;51.660;5.824;2023-03-11T12:36:41;4.38;;;0.90;;
60502;SDS011;51448;51.660;5.824;2023-03-11T12:42:21;6.20;;;1.30;;
60502;SDS011;51448;51.660;5.824;2023-03-11T12:44:51;4.53;;;0.82;;
60502;SDS011;51448;51.660;5.824;2023-03-11T12:47:23;4.18;;;1.02;;
60502;SDS011;51448;51.660;5.824;2023-03-11T12:49:55;7.40;;;1.15;;
60502;SDS011;51448;51.660;5.824;2023-03-11T12:53:07;6.30;;;1.00;;
60502;SDS011;51448;51.660;5.824;2023-03-11T12:56:49;6.05;;;1.00;;
60502;SDS011;51448;51.660;5.824;2023-03-11T12:58:50;5.15;;;0.82;;
60502;SDS011;51448;51.660;5.824;2023-03-11T13:05:20;8.50;;;1.10;;
60502;SDS011;51448;51.660;5.824;2023-03-11T13:08:16;27.08;;;2.50;;
60502;SDS011;51448;51.660;5.824;2023-03-11T13:10:48;49.58;;;3.20;;
60502;SDS011;51448;51.660;5.824;2023-03-11T13:13:38;6.43;;;1.23;;
60502;SDS011;51448;51.660;5.824;2023-03-11T13:18:41;11.15;;;1.58;;
60502;SDS011;51448;51.660;5.824;2023-03-11T13:41:29;4.55;;;0.98;;
60502;SDS011;51448;51.660;5.824;2023-03-11T13:46:53;4.85;;;1.15;;
60502;SDS011;51448;51.660;5.824;2023-03-11T13:49:31;7.05;;;1.00;;
60502;SDS011;51448;51.660;5.824;2023-03-11T13:52:11;7.80;;;1.27;;
60502;SDS011;51448;51.660;5.824;2023-03-11T13:55:24;5.07;;;0.85;;
60502;SDS011;51448;51.660;5.824;2023-03-11T13:58:01;4.00;;;1.10;;
60502;SDS011;51448;51.660;5.824;2023-03-11T14:00:47;5.15;;;1.10;;
60502;SDS011;51448;51.660;5.824;2023-03-11T14:03:24;4.05;;;0.90;;
60502;SDS011;51448;51.660;5.824;2023-03-11T14:06:07;5.68;;;1.38;;
60502;SDS011;51448;51.660;5.824;2023-03-11T14:08:44;4.28;;;0.82;;
60502;SDS011;51448;51.660;5.824;2023-03-11T14:11:24;4.60;;;0.90;;
60502;SDS011;51448;51.660;5.824;2023-03-11T14:13:55;5.60;;;1.10;;
60502;SDS011;51448;51.660;5.824;2023-03-11T14:16:23;5.20;;;0.82;;
60502;SDS011;51448;51.660;5.824;2023-03-11T14:19:23;3.80;;;0.90;;
60502;SDS011;51448;51.660;5.824;2023-03-11T14:21:50;5.47;;;0.98;;
60502;SDS011;51448;51.660;5.824;2023-03-11T14:24:19;6.50;;;0.90;;
60502;SDS011;51448;51.660;5.824;2023-03-11T14:26:53;4.97;;;1.10;;
60502;SDS011;51448;51.660;5.824;2023-03-11T14:29:32;4.18;;;1.08;;
60502;SDS011;51448;51.660;5.824;2023-03-11T14:34:59;5.05;;;1.20;;
60502;SDS011;51448;51.660;5.824;2023-03-11T14:37:33;3.88;;;0.93;;
60502;SDS011;51448;51.660;5.824;2023-03-11T14:40:17;6.05;;;1.00;;
60502;SDS011;51448;51.660;5.824;2023-03-11T14:42:57;4.05;;;1.10;;
60502;SDS011;51448;51.660;5.824;2023-03-11T14:45:31;4.28;;;0.98;;
60502;SDS011;51448;51.660;5.824;2023-03-11T14:48:14;4.20;;;1.08;;
60502;SDS011;51448;51.660;5.824;2023-03-11T14:51:13;4.25;;;1.02;;
60502;SDS011;51448;51.660;5.824;2023-03-11T14:53:52;6.93;;;0.90;;
60502;SDS011;51448;51.660;5.824;2023-03-11T14:56:31;8.03;;;1.17;;
60502;SDS011;51448;51.660;5.824;2023-03-11T14:59:12;3.13;;;0.85;;
60502;SDS011;51448;51.660;5.824;2023-03-11T15:01:53;4.65;;;1.10;;
60502;SDS011;51448;51.660;5.824;2023-03-11T15:04:29;4.07;;;1.10;;
60502;SDS011;51448;51.660;5.824;2023-03-11T15:07:04;5.20;;;1.08;;
60502;SDS011;51448;51.660;5.824;2023-03-11T15:09:32;4.65;;;0.90;;
60502;SDS011;51448;51.660;5.824;2023-03-11T15:12:28;5.72;;;1.02;;
60502;SDS011;51448;51.660;5.824;2023-03-11T15:14:59;6.47;;;1.10;;
60502;SDS011;51448;51.660;5.824;2023-03-11T15:17:27;6.88;;;1.15;;
60502;SDS011;51448;51.660;5.824;2023-03-11T15:23:03;4.22;;;1.33;;
60502;SDS011;51448;51.660;5.824;2023-03-11T15:25:35;5.88;;;1.00;;
60502;SDS011;51448;51.660;5.824;2023-03-11T15:34:38;4.35;;;1.10;;
60502;SDS011;51448;51.660;5.824;2023-03-11T15:37:00;4.47;;;0.80;;
60502;SDS011;51448;51.660;5.824;2023-03-11T15:39:55;6.57;;;1.00;;
60502;SDS011;51448;51.660;5.824;2023-03-11T15:42:35;6.57;;;1.00;;
60502;SDS011;51448;51.660;5.824;2023-03-11T15:45:10;5.68;;;1.30;;
60502;SDS011;51448;51.660;5.824;2023-03-11T15:47:41;4.00;;;1.00;;
60502;SDS011;51448;51.660;5.824;2023-03-11T15:50:23;5.90;;;1.15;;
60502;SDS011;51448;51.660;5.824;2023-03-11T15:53:12;4.22;;;0.98;;
60502;SDS011;51448;51.660;5.824;2023-03-11T15:55:40;4.68;;;0.90;;
60502;SDS011;51448;51.660;5.824;2023-03-11T15:58:10;5.55;;;1.38;;
60502;SDS011;51448;51.660;5.824;2023-03-11T16:00:44;7.50;;;1.20;;
60502;SDS011;51448;51.660;5.824;2023-03-11T16:03:19;4.75;;;1.55;;
60502;SDS011;51448;51.660;5.824;2023-03-11T16:05:47;5.20;;;1.00;;
60502;SDS011;51448;51.660;5.824;2023-03-11T16:08:15;6.05;;;1.40;;
60502;SDS011;51448;51.660;5.824;2023-03-11T16:10:43;6.40;;;1.55;;
60502;SDS011;51448;51.660;5.824;2023-03-11T16:13:11;4.47;;;1.13;;
60502;SDS011;51448;51.660;5.824;2023-03-11T16:15:40;6.30;;;1.30;;
60502;SDS011;51448;51.660;5.824;2023-03-11T16:18:15;3.72;;;1.10;;
60502;SDS011;51448;51.660;5.824;2023-03-11T16:20:43;19.67;;;1.98;;
60502;SDS011;51448;51.660;5.824;2023-03-11T16:23:23;7.22;;;1.52;;
60502;SDS011;51448;51.660;5.824;2023-03-11T16:26:00;5.67;;;1.57;;
60502;SDS011;51448;51.660;5.824;2023-03-11T16:28:30;6.85;;;1.88;;
60502;SDS011;51448;51.660;5.824;2023-03-11T16:30:58;8.23;;;1.95;;
60502;SDS011;51448;51.660;5.824;2023-03-11T16:33:26;6.05;;;1.52;;
60502;SDS011;51448;51.660;5.824;2023-03-11T16:35:53;5.68;;;1.42;;
60502;SDS011;51448;51.660;5.824;2023-03-11T16:38:21;7.15;;;1.50;;
60502;SDS011;51448;51.660;5.824;2023-03-11T16:40:59;6.88;;;1.33;;
60502;SDS011;51448;51.660;5.824;2023-03-11T16:43:28;6.68;;;1.50;;
60502;SDS011;51448;51.660;5.824;2023-03-11T16:45:57;6.07;;;1.33;;
60502;SDS011;51448;51.660;5.824;2023-03-11T16:48:25;5.85;;;1.17;;
60502;SDS011;51448;51.660;5.824;2023-03-11T16:50:53;4.60;;;1.33;;
60502;SDS011;51448;51.660;5.824;2023-03-11T16:53:20;5.78;;;1.52;;
60502;SDS011;51448;51.660;5.824;2023-03-11T16:55:49;7.40;;;1.48;;
60502;SDS011;51448;51.660;5.824;2023-03-11T16:58:17;5.35;;;1.33;;
60502;SDS011;51448;51.660;5.824;2023-03-11T17:00:46;5.90;;;1.33;;
60502;SDS011;51448;51.660;5.824;2023-03-11T17:03:14;4.97;;;1.15;;
60502;SDS011;51448;51.660;5.824;2023-03-11T17:05:48;8.35;;;1.58;;